INFORMACIÓN METAR y TAF
METAR FOR ENTC
ADDS - METARS form results

(1327 UTC 26 November 2020)
Data provider http://aviationweather.gov/metar/data/
 
METAR text: ENTC 261320Z VRB03KT 9999 SCT020 M02/M03 Q1009 NOSIG RMK WIND 2600FT 20005KT
Conditions at: ENTC (TROMSO/LANGNES , NO) observed 1320 UTC 26 November 2020
Temperature: -2.0°C (28°F)
Dewpoint: -3.0°C (27°F) [RH = 93%]
Pressure (altimeter): 29.79 inches Hg (1009.0 mb)
Winds: variable direction winds at 3 MPH (3 knots; 1.5 m/s)
Visibility: 6 or more miles (10+ km)
Ceiling: at least 12,000 feet AGL
Clouds: scattered clouds at 2000 feet AGL
Weather: no significant weather observed at this time

METAR text: ENTC 261250Z 25004KT 220V290 9999 FEW009 SCT018 M02/M04 Q1009 NOSIG RMK WIND 2600FT VRB03KT
Conditions at: ENTC (TROMSO/LANGNES , NO) observed 1250 UTC 26 November 2020
Temperature: -2.0°C (28°F)
Dewpoint: -4.0°C (25°F) [RH = 86%]
Pressure (altimeter): 29.79 inches Hg (1009.0 mb)
Winds: from the WSW (250 degrees) at 5 MPH (4 knots; 2.1 m/s)
Visibility: 6 or more miles (10+ km)
Ceiling: at least 12,000 feet AGL
Clouds: few clouds at 900 feet AGL
scattered clouds at 1800 feet AGL
Weather: no significant weather observed at this time

Forecast for: ENTC (TROMSO/LANGNES , NO)
Text: TAF ENTC 2612/2712 23005KT 9999 FEW007 SCT017
Forecast period: 1200 UTC 26 November 2020 to 0500 UTC 27 November 2020
Forecast type: FROM: standard forecast or significant change
Winds: from the SW (230 degrees) at 6 MPH (5 knots; 2.6 m/s)
Visibility: 6 or more miles (10+ km)
Ceiling: at least 12,000 feet AGL
Clouds: few clouds at 700 feet AGL
scattered clouds at 1700 feet AGL
Weather: no significant weather forecast for this period
Text: BECMG 2705/2707 19020KT
Forecast period: 0500 to 1200 UTC 27 November 2020
Forecast type: BECOMING: Conditions expected to become as follows by 0700 UTC 27 November 2020
Winds: from the S (190 degrees) at 23 MPH (20 knots; 10.3 m/s)
Visibility: 6 or more miles (10+ km)
Ceiling: at least 12,000 feet AGL
Clouds: few clouds at 700 feet AGL
scattered clouds at 1700 feet AGL
Weather: no significant weather forecast for this period

 MAPA DE AEROPUERTO

 INFORMACIÓN DE PISTA
Pista 01 Longitud 7848 ft Ancho 148 ft
Elevación 25 ft Umbral desplazado 0 ft Rumbo de pista 13
Pista 19 Longitud 7848 ft Ancho 148 ft
Elevación 13 ft Umbral desplazado 1286 ft Rumbo de pista 193

 FRECUANCIAS DEL AEROPUERTO
Tipo APP Nombre APP Frecuencia 123.75 MHZ
Tipo ATIS Nombre ATIS Frecuencia 126.125 MHZ
Tipo TWR Nombre TWR Frecuencia 118.3 MHZ

 RADIO AYUDAS DEL AEROPUERTO
Tipo NDB Nombre Kobbe Frecuencia 283 KHZ
Tipo NDB Nombre Kvalsund Frecuencia 362 KHZ
Tipo NDB Nombre Lanes Frecuencia 268 KHZ
Tipo VOR-DME Nombre Tromso Frecuencia 113800 KHZ



Powered by Virtual Airlines Manager [v2.6.2]